createdAt,value
2018-05-12T05:21:54.151Z,49.53
2018-05-12T05:24:22.783Z,51.42
2018-05-12T05:26:51.342Z,53.76
2018-05-12T05:29:19.942Z,55.18
2018-05-12T05:31:48.518Z,56.20
2018-05-12T05:34:17.131Z,55.61
2018-05-12T05:36:47.816Z,55.28
2018-05-12T05:39:18.579Z,55.48
2018-05-12T05:41:46.537Z,55.75
2018-05-12T05:44:15.264Z,56.25
2018-05-12T05:46:43.835Z,55.92
2018-05-12T05:49:12.399Z,55.73
2018-05-12T05:51:40.971Z,56.53
2018-05-12T05:54:09.530Z,56.56
2018-05-12T05:56:38.119Z,56.72
2018-05-12T05:59:06.759Z,57.13
2018-05-12T06:01:35.332Z,57.45
2018-05-12T06:04:03.954Z,57.68
2018-05-12T06:06:32.568Z,57.87
2018-05-12T06:09:01.131Z,57.51
2018-05-12T06:11:29.716Z,57.59
2018-05-12T06:13:58.332Z,57.55
2018-05-12T06:16:26.902Z,58.06
2018-05-12T06:18:55.493Z,57.38
2018-05-12T06:21:24.116Z,57.75
2018-05-12T06:23:52.672Z,57.40
2018-05-12T06:26:21.248Z,57.91
2018-05-12T06:28:49.807Z,57.50
2018-05-12T06:31:18.418Z,58.17
2018-05-12T06:33:47.089Z,57.90
2018-05-12T06:36:15.649Z,57.98
2018-05-12T06:38:44.217Z,58.02
2018-05-12T06:41:12.788Z,58.78
2018-05-12T06:43:41.353Z,57.60
2018-05-12T06:46:09.974Z,57.91
2018-05-12T06:48:38.539Z,58.46
2018-05-12T06:51:07.319Z,58.47
2018-05-12T06:53:35.891Z,58.15
2018-05-12T06:56:04.123Z,58.46
2018-05-12T06:58:32.693Z,57.33
2018-05-12T07:01:01.267Z,57.27
2018-05-12T07:03:29.826Z,57.66
2018-05-12T07:05:58.430Z,58.06
2018-05-12T07:08:34.266Z,57.14
2018-05-12T07:11:02.883Z,57.27
2018-05-12T07:13:31.459Z,57.02
2018-05-12T07:16:00.078Z,57.20
2018-05-12T07:18:29.146Z,56.79
2018-05-12T07:20:57.734Z,56.15
2018-05-12T07:23:26.342Z,55.57
2018-05-12T07:25:54.904Z,55.68
2018-05-12T07:28:23.528Z,55.09
2018-05-12T07:38:32.616Z,55.19
2018-05-12T07:41:01.194Z,54.86
2018-05-12T07:43:29.762Z,54.92
2018-05-12T07:45:58.348Z,54.46
2018-05-12T07:48:26.927Z,54.36
2018-05-12T07:50:55.510Z,53.46
2018-05-12T07:53:24.074Z,53.54
2018-05-12T07:55:52.628Z,52.70
2018-05-12T07:58:21.178Z,51.14
2018-05-12T08:00:49.765Z,50.43
2018-05-12T08:03:18.329Z,51.27
2018-05-12T08:05:46.625Z,51.32
2018-05-12T08:08:15.205Z,51.18
2018-05-12T08:10:43.767Z,50.95
2018-05-12T08:13:12.346Z,51.54
2018-05-12T08:15:40.916Z,51.55
2018-05-12T08:18:09.486Z,50.21
2018-05-12T08:20:38.123Z,49.94
2018-05-12T08:23:06.792Z,48.49
2018-05-12T08:25:35.688Z,47.88
2018-05-12T08:28:04.237Z,47.95
2018-05-12T08:30:32.801Z,48.25
2018-05-12T08:33:01.365Z,48.07
2018-05-12T08:35:30.062Z,47.91
2018-05-12T08:37:59.874Z,47.37
2018-05-12T08:40:28.476Z,46.75
2018-05-12T08:42:57.163Z,45.94
2018-05-12T08:45:25.724Z,45.62
2018-05-12T08:47:54.961Z,44.34
2018-05-12T08:50:23.519Z,44.91
2018-05-12T08:52:52.081Z,43.60
2018-05-12T08:55:20.691Z,44.02
2018-05-12T08:57:49.456Z,44.54
2018-05-12T09:00:18.075Z,44.63
2018-05-12T09:02:45.966Z,44.55
2018-05-12T09:05:14.615Z,44.24
2018-05-12T09:07:43.306Z,44.04
2018-05-12T09:10:11.863Z,44.33
2018-05-12T09:12:40.438Z,44.54
2018-05-12T09:15:08.999Z,44.93
2018-05-12T09:17:37.588Z,43.59
2018-05-12T09:20:06.175Z,43.77
2018-05-12T09:22:34.733Z,42.50
2018-05-12T09:25:03.526Z,41.75
2018-05-12T09:27:32.085Z,40.89
2018-05-12T09:30:00.638Z,40.72
2018-05-12T09:32:29.202Z,41.16
2018-05-12T09:34:57.764Z,41.90
2018-05-12T09:37:31.407Z,40.97
2018-05-12T09:39:59.972Z,40.74
2018-05-12T09:42:28.569Z,41.04
2018-05-12T09:44:57.385Z,41.04
2018-05-12T09:47:25.762Z,40.38
2018-05-12T09:49:54.347Z,41.02
2018-05-12T09:52:22.931Z,40.86
2018-05-12T09:54:51.662Z,41.19
2018-05-12T09:57:20.235Z,41.15
2018-05-12T09:59:48.801Z,40.47
2018-05-12T10:02:17.363Z,40.16
2018-05-12T10:04:45.924Z,40.50
2018-05-12T10:07:14.476Z,39.71
2018-05-12T10:09:43.138Z,38.55
2018-05-12T10:12:11.831Z,39.44
2018-05-12T10:14:40.384Z,39.62
2018-05-12T10:17:08.944Z,39.73
2018-05-12T10:19:37.564Z,40.76
2018-05-12T10:22:05.782Z,38.79
2018-05-12T10:24:34.344Z,39.16
2018-05-12T10:27:02.904Z,39.45
2018-05-12T10:29:31.490Z,39.66
2018-05-12T10:32:00.046Z,39.45
2018-05-12T10:34:28.608Z,38.63
2018-05-12T10:36:57.206Z,38.61
2018-05-12T10:39:25.764Z,37.75
2018-05-12T10:41:54.328Z,37.98
2018-05-12T10:44:22.887Z,36.50
2018-05-12T10:46:51.448Z,35.20
2018-05-12T10:49:20.004Z,35.78
2018-05-12T10:51:48.564Z,34.90
2018-05-12T10:54:17.142Z,34.97
2018-05-12T10:56:45.699Z,34.94
2018-05-12T10:59:14.250Z,36.16
2018-05-12T11:01:42.803Z,35.78
2018-05-12T11:04:11.380Z,35.50
2018-05-12T11:06:39.934Z,35.05
2018-05-12T11:09:08.528Z,34.25
2018-05-12T11:11:37.083Z,34.00
2018-05-12T11:14:05.692Z,34.19
2018-05-12T11:16:34.256Z,34.52
2018-05-12T11:19:02.807Z,34.27
2018-05-12T11:21:31.400Z,33.98
2018-05-12T11:24:00.142Z,34.69
2018-05-12T11:26:28.704Z,34.80
2018-05-12T11:28:57.306Z,34.84
2018-05-12T11:31:25.920Z,35.29
2018-05-12T11:33:54.544Z,36.40
2018-05-12T11:36:23.133Z,35.12
2018-05-12T11:38:51.866Z,36.82
2018-05-12T11:41:20.470Z,39.38
2018-05-12T11:43:49.026Z,39.85
2018-05-12T11:46:17.662Z,40.09
2018-05-12T11:48:46.398Z,39.50
2018-05-12T11:51:14.960Z,39.46
2018-05-12T11:53:43.526Z,39.32
2018-05-12T11:56:12.099Z,39.05
2018-05-12T11:58:40.658Z,38.75
2018-05-12T12:01:09.267Z,39.48
2018-05-12T12:03:37.849Z,39.19
2018-05-12T12:06:06.628Z,38.92
2018-05-12T12:08:35.194Z,39.30
2018-05-12T12:11:03.765Z,39.71
2018-05-12T12:13:32.327Z,38.65
2018-05-12T12:16:00.890Z,38.11
2018-05-12T12:18:29.446Z,37.82
2018-05-12T12:20:57.828Z,37.59
2018-05-12T12:23:26.432Z,37.60
2018-05-12T12:25:55.067Z,38.46
2018-05-12T12:28:23.691Z,39.31
2018-05-12T12:30:52.283Z,40.93
2018-05-12T12:33:21.692Z,41.75
2018-05-12T12:35:50.364Z,42.34
2018-05-12T12:38:18.950Z,42.92
2018-05-12T12:40:47.608Z,43.12
2018-05-12T12:43:16.195Z,42.97
2018-05-12T12:45:44.784Z,43.01
2018-05-12T12:48:13.355Z,43.34
2018-05-12T12:50:41.978Z,43.51
2018-05-12T12:53:10.523Z,42.59
2018-05-12T12:55:39.082Z,42.19
2018-05-12T12:58:07.655Z,42.69
2018-05-12T13:00:36.221Z,41.54
2018-05-12T13:03:04.778Z,41.70
2018-05-12T13:05:33.601Z,42.21
2018-05-12T13:08:02.165Z,42.54
2018-05-12T13:10:30.724Z,44.05
2018-05-12T13:12:59.282Z,44.39
2018-05-12T13:15:27.878Z,44.33
2018-05-12T13:17:56.460Z,44.91
2018-05-12T13:20:25.216Z,45.08
2018-05-12T13:22:53.790Z,44.49
2018-05-12T13:25:22.438Z,44.08
2018-05-12T13:27:51.252Z,44.63
2018-05-12T13:30:19.915Z,46.70
2018-05-12T13:32:48.606Z,47.21
2018-05-12T13:35:17.180Z,46.91
2018-05-12T13:37:47.873Z,46.82
2018-05-12T13:40:16.552Z,44.67
2018-05-12T13:42:45.302Z,43.79
2018-05-12T13:45:14.138Z,44.30
2018-05-12T13:47:42.688Z,44.66
2018-05-12T13:50:10.997Z,45.40
2018-05-12T13:52:39.568Z,45.76
2018-05-12T13:55:08.126Z,46.52
2018-05-12T13:58:05.004Z,47.15
2018-05-12T14:00:33.615Z,46.79
2018-05-12T14:03:02.188Z,47.37
2018-05-12T14:05:30.748Z,47.13
2018-05-12T14:07:59.360Z,48.32
2018-05-12T14:10:28.235Z,48.25
2018-05-12T14:12:56.845Z,49.47
2018-05-12T14:15:25.481Z,50.41
2018-05-12T14:17:54.048Z,51.04
2018-05-12T14:20:22.603Z,51.68
2018-05-12T14:22:51.161Z,52.10
2018-05-12T14:25:19.767Z,52.55
2018-05-12T14:27:48.333Z,51.97
2018-05-12T14:30:17.023Z,52.70
2018-05-12T14:32:45.590Z,52.28
2018-05-12T14:35:16.719Z,51.29
2018-05-12T14:37:53.209Z,48.64
2018-05-12T14:40:21.880Z,49.59
2018-05-12T14:42:54.603Z,49.36
2018-05-12T14:45:23.303Z,49.69
2018-05-12T14:47:52.033Z,49.25
2018-05-12T14:50:20.591Z,46.30
2018-05-12T14:52:49.136Z,44.05
2018-05-12T14:55:17.686Z,43.99
2018-05-12T14:57:46.233Z,43.72
2018-05-12T15:00:14.843Z,43.32
2018-05-12T15:02:55.212Z,43.74
2018-05-12T15:05:23.856Z,43.45
2018-05-12T15:07:52.404Z,44.02
2018-05-12T15:10:21.021Z,44.10
2018-05-12T15:12:49.593Z,43.68
2018-05-12T15:15:18.188Z,43.44
2018-05-12T15:17:46.753Z,43.25
2018-05-12T15:20:15.298Z,43.87
2018-05-12T15:22:43.846Z,48.22
2018-05-12T15:25:12.500Z,52.16
2018-05-12T15:27:41.073Z,55.31
2018-05-12T15:30:11.086Z,52.77
2018-05-12T15:32:39.701Z,54.89
2018-05-12T15:35:08.271Z,52.86
2018-05-12T15:37:36.836Z,58.17
2018-05-12T15:40:05.099Z,56.40
2018-05-12T15:42:33.791Z,58.72
2018-05-12T15:45:02.359Z,58.67
2018-05-12T15:47:31.017Z,57.79
2018-05-12T15:49:59.693Z,59.94
2018-05-12T15:52:28.487Z,58.99
2018-05-12T15:54:57.263Z,59.32
2018-05-12T15:57:26.181Z,60.85
2018-05-12T15:59:54.988Z,61.78
2018-05-12T16:02:23.586Z,61.04
2018-05-12T16:05:09.605Z,61.75
2018-05-12T16:07:40.284Z,62.05
2018-05-12T16:10:10.337Z,63.12
2018-05-12T16:12:54.974Z,62.45
2018-05-12T16:15:39.505Z,60.98
2018-05-12T16:18:15.213Z,59.09
2018-05-12T16:20:43.891Z,62.09
2018-05-12T16:23:12.444Z,60.80
2018-05-12T16:25:41.561Z,58.80
2018-05-12T16:28:10.156Z,58.70
2018-05-12T16:30:38.754Z,59.29
2018-05-12T16:33:07.365Z,59.50
2018-05-12T16:35:36.047Z,60.32
2018-05-12T16:38:04.808Z,60.13
2018-05-12T16:40:33.413Z,58.32
2018-05-12T16:43:02.114Z,57.30
2018-05-12T16:45:31.002Z,57.29
2018-05-12T16:48:12.551Z,58.13
2018-05-12T16:50:43.215Z,58.48
2018-05-12T16:53:12.614Z,61.10
2018-05-12T16:55:48.906Z,61.87
2018-05-12T16:58:34.559Z,62.94
2018-05-12T17:01:05.471Z,63.04
2018-05-12T17:03:36.522Z,62.65
2018-05-12T17:06:08.265Z,61.69
2018-05-12T17:08:36.944Z,61.23
2018-05-12T17:11:05.639Z,60.56
2018-05-12T17:13:34.227Z,60.92
2018-05-12T17:16:02.841Z,61.05
2018-05-12T17:18:31.403Z,60.85
2018-05-12T17:21:00.052Z,61.03
2018-05-12T17:23:28.602Z,61.76
2018-05-12T17:25:57.218Z,62.19
2018-05-12T17:28:25.827Z,63.87
2018-05-12T17:30:54.437Z,63.66
2018-05-12T17:33:23.071Z,64.94
2018-05-12T17:35:51.711Z,66.62
2018-05-12T17:38:20.353Z,67.46
2018-05-12T17:40:49.088Z,67.60
2018-05-12T17:43:17.687Z,68.69
2018-05-12T17:45:46.294Z,68.83
2018-05-12T17:48:14.865Z,69.05
2018-05-12T17:50:43.422Z,68.28
2018-05-12T17:53:12.077Z,66.68
2018-05-12T17:55:40.775Z,67.14
2018-05-12T17:58:09.336Z,68.25
2018-05-12T18:00:39.827Z,68.34
2018-05-12T18:03:08.389Z,68.13
2018-05-12T18:05:36.963Z,65.79
2018-05-12T18:08:05.532Z,66.25
2018-05-12T18:10:34.099Z,67.06
2018-05-12T18:13:02.401Z,66.83
2018-05-12T18:15:30.960Z,66.55
2018-05-12T18:17:59.560Z,65.79
2018-05-12T18:20:28.123Z,65.87
2018-05-12T18:22:56.686Z,66.34
2018-05-12T18:25:25.239Z,66.63
2018-05-12T18:27:53.793Z,68.77
2018-05-12T18:30:27.581Z,71.55
2018-05-12T18:32:56.590Z,72.65
2018-05-12T18:35:25.555Z,73.05
2018-05-12T18:37:54.481Z,73.72
2018-05-12T18:40:23.097Z,74.06
2018-05-12T18:42:51.713Z,73.84
2018-05-12T18:45:39.899Z,74.86
2018-05-12T18:48:08.684Z,75.87
2018-05-12T18:50:37.509Z,74.71
2018-05-12T18:53:06.275Z,75.82
2018-05-12T18:55:34.853Z,74.95
2018-05-12T18:58:03.464Z,75.40
2018-05-12T19:00:32.028Z,74.70
2018-05-12T19:03:00.591Z,75.10
2018-05-12T19:05:29.147Z,75.11
2018-05-12T19:07:58.970Z,75.04
2018-05-12T19:10:27.532Z,75.18
2018-05-12T19:12:56.091Z,74.99
2018-05-12T19:15:24.663Z,74.69
2018-05-12T19:17:53.246Z,74.59
2018-05-12T19:20:21.804Z,74.33
2018-05-12T19:22:50.349Z,74.13
2018-05-12T19:25:18.908Z,74.24
2018-05-12T19:27:47.514Z,73.82
2018-05-12T19:30:15.828Z,73.36
2018-05-12T19:32:44.408Z,74.13
2018-05-12T19:35:13.466Z,73.84
2018-05-12T19:37:44.976Z,73.03
2018-05-12T19:40:13.573Z,72.42
2018-05-12T19:42:44.388Z,72.11
2018-05-12T19:45:12.994Z,71.63
2018-05-12T19:47:41.596Z,69.15
2018-05-12T19:50:10.169Z,70.46
2018-05-12T19:52:38.767Z,71.52
2018-05-12T19:55:06.937Z,72.68
2018-05-12T19:57:35.496Z,73.05
2018-05-12T20:00:05.282Z,73.28
2018-05-12T20:02:33.849Z,73.53
2018-05-12T20:05:02.418Z,73.19
2018-05-12T20:07:30.984Z,73.27
2018-05-12T20:09:59.576Z,74.05
2018-05-12T20:12:28.228Z,74.10
